Time;durP1;ratioP1;P1;durP2;ratioP2;P2;SDS_P1;SDS_P2;PMS_P1;PMS_P2;Temp;Humidity;BMP_temperature;BMP_pressure;BME280_temperature;BME280_humidity;BME280_pressure;Samples;Min_cycle;Max_cycle;Signal;HPM_P1;HPM_P2
2022/10/28 00:00:32;;;;;;;13.75;8.48;;;15.70;99.90;;;;;;5055431;28;20599;-77
2022/10/28 00:03:01;;;;;;;13.43;8.80;;;15.70;99.90;;;;;;5054329;28;20633;-76
2022/10/28 00:05:28;;;;;;;10.55;8.57;;;15.80;99.90;;;;;;5055460;28;20259;-77
2022/10/28 00:07:55;;;;;;;8.95;7.78;;;15.70;99.90;;;;;;5054503;28;20202;-77
2022/10/28 00:10:23;;;;;;;9.32;7.32;;;15.70;99.90;;;;;;5055413;28;20205;-77
2022/10/28 00:12:50;;;;;;;11.30;8.10;;;15.70;99.90;;;;;;5055466;28;20194;-76
2022/10/28 00:15:16;;;;;;;9.35;8.20;;;15.70;99.90;;;;;;5054540;28;20213;-77
2022/10/28 00:17:43;;;;;;;12.60;8.45;;;15.70;99.90;;;;;;5055481;28;20208;-77
2022/10/28 00:20:11;;;;;;;10.15;7.60;;;15.70;99.90;;;;;;5054891;28;20285;-78
2022/10/28 00:22:38;;;;;;;12.80;8.35;;;15.70;99.90;;;;;;5053852;28;20280;-77
2022/10/28 00:25:05;;;;;;;11.45;8.93;;;15.70;99.90;;;;;;5054834;28;20238;-78
2022/10/28 00:27:34;;;;;;;11.27;9.40;;;15.60;99.90;;;;;;5054761;28;20281;-77
2022/10/28 00:30:01;;;;;;;10.57;8.43;;;15.60;99.90;;;;;;5053939;28;20208;-77
2022/10/28 00:32:29;;;;;;;10.70;8.15;;;15.60;99.90;;;;;;5054862;28;20205;-78
2022/10/28 00:34:55;;;;;;;11.43;8.43;;;15.60;99.90;;;;;;5054667;28;20218;-78
2022/10/28 00:37:22;;;;;;;8.88;7.15;;;15.50;99.90;;;;;;5053856;28;20206;-78
2022/10/28 00:39:49;;;;;;;10.05;8.45;;;15.50;99.90;;;;;;5054770;28;20217;-78
2022/10/28 00:42:20;;;;;;;11.00;8.38;;;15.50;99.90;;;;;;5054219;28;20198;-78
2022/10/28 00:44:54;;;;;;;9.43;8.48;;;15.50;99.90;;;;;;5053488;28;20222;-78
2022/10/28 00:47:37;;;;;;;10.82;8.40;;;15.50;99.90;;;;;;5054220;28;20694;-77
2022/10/28 00:50:12;;;;;;;8.18;7.30;;;15.40;99.90;;;;;;5053471;28;20267;-78
2022/10/28 00:52:40;;;;;;;11.52;8.15;;;15.40;99.90;;;;;;5053350;28;20610;-78
2022/10/28 00:55:08;;;;;;;8.35;7.43;;;15.40;99.90;;;;;;5054092;28;20222;-77
2022/10/28 00:57:37;;;;;;;11.75;9.48;;;15.30;99.90;;;;;;5053758;28;20515;-77
2022/10/28 01:00:07;;;;;;;10.98;7.70;;;15.30;99.90;;;;;;5054196;28;20201;-77
2022/10/28 01:02:41;;;;;;;9.80;7.47;;;15.30;99.90;;;;;;5054302;28;20209;-77
2022/10/28 01:05:10;;;;;;;10.15;7.80;;;15.20;99.90;;;;;;5053576;28;20241;-77
2022/10/28 01:07:37;;;;;;;11.80;7.88;;;15.20;99.90;;;;;;5053739;28;20198;-78
2022/10/28 01:10:04;;;;;;;8.38;7.47;;;15.20;99.90;;;;;;5053839;28;20202;-77
2022/10/28 01:12:40;;;;;;;11.85;8.90;;;15.10;99.90;;;;;;5053356;28;20205;-78
2022/10/28 01:15:16;;;;;;;11.05;8.50;;;15.10;99.90;;;;;;5053905;28;20549;-77
2022/10/28 01:17:54;;;;;;;10.35;7.78;;;15.10;99.90;;;;;;5054238;28;20205;-77
2022/10/28 01:20:47;;;;;;;9.60;8.10;;;15.10;99.90;;;;;;5053003;28;20579;-77
2022/10/28 01:23:21;;;;;;;12.48;8.63;;;15.10;99.90;;;;;;5053457;28;20550;-77
2022/10/28 01:26:03;;;;;;;14.20;9.27;;;15.10;99.90;;;;;;5052791;28;20233;-78
2022/10/28 01:28:50;;;;;;;15.05;9.30;;;15.10;99.90;;;;;;5053298;28;20198;-78
2022/10/28 01:31:29;;;;;;;12.65;9.27;;;15.10;99.90;;;;;;5053389;28;20186;-77
2022/10/28 01:34:06;;;;;;;16.55;9.75;;;15.10;99.90;;;;;;5052739;28;20186;-77
2022/10/28 01:36:38;;;;;;;15.77;9.57;;;15.10;99.90;;;;;;5053285;28;20192;-77
2022/10/28 01:39:14;;;;;;;15.00;9.40;;;15.10;99.90;;;;;;5052523;28;20204;-78
2022/10/28 01:41:51;;;;;;;12.97;9.67;;;15.10;99.90;;;;;;5053039;28;20680;-78
2022/10/28 01:44:25;;;;;;;12.43;9.05;;;15.10;99.90;;;;;;5053226;28;20241;-77
2022/10/28 01:46:59;;;;;;;14.03;9.87;;;15.10;99.90;;;;;;5052427;28;20213;-78
2022/10/28 01:49:33;;;;;;;17.40;10.13;;;15.10;99.90;;;;;;5052912;28;20205;-77
2022/10/28 01:52:05;;;;;;;15.20;9.90;;;15.10;99.90;;;;;;5053015;28;20217;-78
2022/10/28 01:54:33;;;;;;;14.33;9.83;;;15.10;99.90;;;;;;5052428;28;20222;-78
2022/10/28 01:57:03;;;;;;;13.37;9.60;;;15.10;99.90;;;;;;5053460;28;20205;-78
2022/10/28 01:59:31;;;;;;;16.80;10.90;;;15.10;99.90;;;;;;5053014;28;20204;-78
2022/10/28 02:02:00;;;;;;;15.63;10.88;;;15.10;99.90;;;;;;5051698;28;20198;-77
2022/10/28 02:04:27;;;;;;;16.47;10.30;;;15.10;99.90;;;;;;5051768;28;20226;-77
2022/10/28 02:06:55;;;;;;;18.60;10.77;;;15.10;99.90;;;;;;5052601;28;20194;-79
2022/10/28 02:09:34;;;;;;;21.20;11.07;;;15.00;99.90;;;;;;5052429;28;20206;-78
2022/10/28 02:12:25;;;;;;;15.07;11.33;;;15.10;99.90;;;;;;5053157;28;20187;-77
2022/10/28 02:15:14;;;;;;;15.48;10.70;;;15.10;99.90;;;;;;5051816;28;20508;-78
2022/10/28 02:17:54;;;;;;;18.13;10.55;;;15.10;99.90;;;;;;5052598;28;20652;-77
2022/10/28 02:20:31;;;;;;;15.70;11.30;;;15.10;99.90;;;;;;5052510;28;20463;-77
2022/10/28 02:23:10;;;;;;;20.73;11.50;;;15.10;99.90;;;;;;5051700;28;20201;-78
2022/10/28 02:25:43;;;;;;;18.80;11.43;;;15.00;99.90;;;;;;5052215;28;20236;-78
2022/10/28 02:28:15;;;;;;;14.82;10.38;;;15.00;99.90;;;;;;5052202;28;20216;-77
2022/10/28 02:30:47;;;;;;;17.48;9.80;;;15.00;99.90;;;;;;5052395;28;20198;-78
2022/10/28 02:33:20;;;;;;;17.70;11.70;;;15.00;99.90;;;;;;5052258;28;20506;-78
2022/10/28 02:35:52;;;;;;;16.80;11.45;;;15.00;99.90;;;;;;5051861;28;20281;-78
2022/10/28 02:38:25;;;;;;;20.13;11.47;;;15.00;99.90;;;;;;5052030;28;20198;-78
2022/10/28 02:40:56;;;;;;;16.93;11.37;;;15.00;99.90;;;;;;5052196;28;20190;-78
2022/10/28 02:43:25;;;;;;;18.93;11.90;;;15.00;99.90;;;;;;5050978;28;20205;-79
2022/10/28 02:45:57;;;;;;;15.93;11.43;;;15.00;99.90;;;;;;5052319;28;20213;-79
2022/10/28 02:48:31;;;;;;;17.73;11.93;;;15.00;99.90;;;;;;5052131;28;20259;-78
2022/10/28 02:51:03;;;;;;;15.87;11.13;;;15.00;99.90;;;;;;5051177;28;20208;-79
2022/10/28 02:53:33;;;;;;;17.17;11.57;;;15.00;99.90;;;;;;5051599;28;20483;-78
2022/10/28 02:56:02;;;;;;;18.77;10.77;;;14.90;99.90;;;;;;5052030;28;20208;-78
2022/10/28 02:58:37;;;;;;;16.80;11.00;;;14.90;99.90;;;;;;5051209;28;20200;-78
2022/10/28 03:01:04;;;;;;;16.00;10.93;;;14.90;99.90;;;;;;5051913;28;20211;-78
2022/10/28 03:03:32;;;;;;;21.33;11.90;;;15.00;99.90;;;;;;5051128;28;20252;-78
2022/10/28 03:05:59;;;;;;;15.47;10.23;;;14.90;99.90;;;;;;5052138;28;20200;-79
2022/10/28 03:08:26;;;;;;;20.33;11.65;;;14.90;99.90;;;;;;5051737;28;20210;-79
2022/10/28 03:10:53;;;;;;;15.50;10.77;;;14.90;99.90;;;;;;5051492;28;20891;-78
2022/10/28 03:13:20;;;;;;;17.77;10.77;;;14.90;99.90;;;;;;5051896;28;20197;-78
2022/10/28 03:15:47;;;;;;;16.93;10.43;;;14.90;99.90;;;;;;5051795;28;20211;-78
2022/10/28 03:18:14;;;;;;;16.07;10.77;;;14.90;99.90;;;;;;5051090;28;20292;-78
2022/10/28 03:20:42;;;;;;;19.33;10.83;;;14.90;99.90;;;;;;5051733;28;20605;-78
2022/10/28 03:23:09;;;;;;;19.63;11.40;;;14.80;99.90;;;;;;5051415;28;20416;-78
2022/10/28 03:25:36;;;;;;;19.10;10.93;;;14.80;99.90;;;;;;5050852;28;20237;-78
2022/10/28 03:28:02;;;;;;;20.83;11.63;;;14.80;99.90;;;;;;5051838;28;20204;-78
2022/10/28 03:30:29;;;;;;;15.70;10.63;;;14.80;99.90;;;;;;5051865;28;20288;-78
2022/10/28 03:32:56;;;;;;;19.43;11.23;;;14.80;99.90;;;;;;5051404;28;20194;-78
2022/10/28 03:35:26;;;;;;;13.47;10.53;;;14.80;99.90;;;;;;5051434;28;20202;-79
2022/10/28 03:37:54;;;;;;;14.40;10.30;;;14.80;99.90;;;;;;5051783;28;20190;-78
2022/10/28 03:40:21;;;;;;;15.10;10.50;;;14.80;99.90;;;;;;5050448;28;20202;-78
2022/10/28 03:42:48;;;;;;;15.30;9.90;;;14.70;99.90;;;;;;5051661;28;20252;-78
2022/10/28 03:45:15;;;;;;;12.50;9.07;;;14.70;99.90;;;;;;5051745;28;20506;-79
2022/10/28 03:47:42;;;;;;;16.47;10.73;;;14.70;99.90;;;;;;5050768;28;20874;-78
2022/10/28 03:50:09;;;;;;;12.87;9.33;;;14.70;99.90;;;;;;5051031;28;20204;-78
2022/10/28 03:52:36;;;;;;;14.00;10.37;;;14.70;99.90;;;;;;5051493;28;20276;-79
2022/10/28 03:55:05;;;;;;;13.10;10.40;;;14.70;99.90;;;;;;5050852;28;20309;-79
2022/10/28 03:57:33;;;;;;;19.07;10.10;;;14.70;99.90;;;;;;5051539;28;20202;-78
2022/10/28 04:00:00;;;;;;;19.27;10.70;;;14.60;99.90;;;;;;5050629;28;20289;-78
2022/10/28 04:02:27;;;;;;;20.47;11.30;;;14.70;99.90;;;;;;5051407;28;20224;-79
2022/10/28 04:04:54;;;;;;;17.67;10.73;;;14.60;99.90;;;;;;5051536;28;20214;-79
2022/10/28 04:07:20;;;;;;;20.27;11.90;;;14.60;99.90;;;;;;5051004;28;20229;-78
2022/10/28 04:09:50;;;;;;;20.63;11.00;;;14.60;99.90;;;;;;5050994;28;20300;-79
2022/10/28 04:12:18;;;;;;;16.07;11.53;;;14.60;99.90;;;;;;5051080;28;20330;-79
2022/10/28 04:14:46;;;;;;;20.10;12.17;;;14.60;99.90;;;;;;5050871;28;20212;-79
2022/10/28 04:17:13;;;;;;;17.37;11.07;;;14.60;99.90;;;;;;5051103;28;20508;-77
2022/10/28 04:19:40;;;;;;;15.93;10.50;;;14.60;99.90;;;;;;5051034;28;20201;-80
2022/10/28 04:22:07;;;;;;;19.30;11.33;;;14.60;99.90;;;;;;5050665;28;20202;-79
2022/10/28 04:24:34;;;;;;;17.55;11.25;;;14.60;99.90;;;;;;5051044;28;20221;-79
2022/10/28 04:27:00;;;;;;;17.77;10.53;;;14.50;99.90;;;;;;5051554;28;20194;-79
2022/10/28 04:29:29;;;;;;;20.93;13.07;;;14.60;99.90;;;;;;5053710;28;20621;-78
2022/10/28 04:31:56;;;;;;;18.15;11.90;;;14.50;99.90;;;;;;5054702;28;20206;-80
2022/10/28 04:34:22;;;;;;;17.73;11.40;;;14.50;99.90;;;;;;5054647;28;20225;-79
2022/10/28 04:36:49;;;;;;;18.60;11.83;;;14.50;99.90;;;;;;5053672;28;20194;-78
2022/10/28 04:39:16;;;;;;;19.60;11.47;;;14.50;99.90;;;;;;5054486;28;20225;-79
2022/10/28 04:41:43;;;;;;;19.17;11.53;;;14.50;99.90;;;;;;5054173;28;20208;-79
2022/10/28 04:44:10;;;;;;;12.90;10.60;;;14.50;99.90;;;;;;5053906;28;20236;-79
2022/10/28 04:46:38;;;;;;;14.33;9.90;;;14.50;99.90;;;;;;5054428;28;20288;-79
2022/10/28 04:49:05;;;;;;;11.15;9.45;;;14.50;99.90;;;;;;5053757;28;20202;-79
2022/10/28 04:51:32;;;;;;;12.20;9.37;;;14.40;99.90;;;;;;5053763;28;20205;-79
2022/10/28 04:53:59;;;;;;;9.60;8.37;;;14.40;99.90;;;;;;5054581;28;20649;-77
2022/10/28 04:56:25;;;;;;;12.77;9.57;;;14.40;99.90;;;;;;5053446;28;20212;-78
2022/10/28 04:58:52;;;;;;;13.07;9.30;;;14.30;99.90;;;;;;5054091;28;20194;-77
2022/10/28 05:01:19;;;;;;;12.70;9.27;;;14.30;99.90;;;;;;5054426;28;20202;-77
2022/10/28 05:03:47;;;;;;;12.53;9.27;;;14.30;99.90;;;;;;5053794;28;20234;-77
2022/10/28 05:06:14;;;;;;;14.07;9.67;;;14.30;99.90;;;;;;5054150;28;20229;-78
2022/10/28 05:08:41;;;;;;;13.40;10.53;;;14.30;99.90;;;;;;5054274;28;20285;-77
2022/10/28 05:11:08;;;;;;;19.73;10.83;;;14.30;99.90;;;;;;5053334;28;20599;-77
2022/10/28 05:13:35;;;;;;;13.53;9.40;;;14.30;99.90;;;;;;5054256;28;20206;-77
2022/10/28 05:16:02;;;;;;;13.67;9.50;;;14.30;99.90;;;;;;5053946;28;20771;-77
2022/10/28 05:18:28;;;;;;;16.57;9.40;;;14.20;99.90;;;;;;5053437;28;20212;-77
2022/10/28 05:20:57;;;;;;;13.23;9.33;;;14.20;99.90;;;;;;5054076;28;20208;-78
2022/10/28 05:23:24;;;;;;;17.53;9.57;;;14.20;99.90;;;;;;5057536;28;20209;-77
2022/10/28 05:25:51;;;;;;;13.80;9.67;;;14.20;99.90;;;;;;5067335;28;20233;-76
2022/10/28 05:28:18;;;;;;;11.87;8.83;;;14.20;99.90;;;;;;5067088;28;20201;-78
2022/10/28 05:30:45;;;;;;;14.13;9.53;;;14.10;99.90;;;;;;5072322;28;20212;-78
2022/10/28 05:33:12;;;;;;;17.63;11.07;;;14.10;99.90;;;;;;5072708;28;20208;-79
2022/10/28 05:35:40;;;;;;;16.77;9.80;;;14.20;99.90;;;;;;5073581;28;20197;-78
2022/10/28 05:38:08;;;;;;;18.47;9.80;;;14.20;99.90;;;;;;5063352;28;20306;-78
2022/10/28 05:40:35;;;;;;;15.50;10.00;;;14.20;99.90;;;;;;5052663;28;20272;-80
2022/10/28 05:43:02;;;;;;;21.07;10.50;;;14.10;99.90;;;;;;5053355;28;20214;-77
2022/10/28 05:45:29;;;;;;;16.47;10.33;;;14.10;99.90;;;;;;5052666;28;20317;-79
2022/10/28 05:47:56;;;;;;;17.67;10.10;;;14.10;99.90;;;;;;5053284;28;20202;-80
2022/10/28 05:50:23;;;;;;;18.13;11.20;;;14.10;99.90;;;;;;5052671;28;20201;-80
2022/10/28 05:52:51;;;;;;;16.80;10.23;;;14.10;99.90;;;;;;5052305;28;20210;-78
2022/10/28 05:55:20;;;;;;;12.60;10.10;;;14.10;99.90;;;;;;5053236;28;20210;-79
2022/10/28 05:57:48;;;;;;;13.83;9.90;;;14.10;99.90;;;;;;5052994;28;20205;-78
2022/10/28 06:00:17;;;;;;;12.13;8.70;;;14.10;99.90;;;;;;5052114;28;20190;-80
2022/10/28 06:02:44;;;;;;;14.97;10.00;;;14.10;99.90;;;;;;5053266;28;20289;-78
2022/10/28 06:05:12;;;;;;;16.07;9.77;;;14.10;99.90;;;;;;5052539;28;20332;-79
2022/10/28 06:07:39;;;;;;;15.47;9.87;;;14.10;99.90;;;;;;5052014;28;20198;-78
2022/10/28 06:10:09;;;;;;;17.83;9.87;;;14.10;99.90;;;;;;5052625;28;20371;-78
2022/10/28 06:12:37;;;;;;;22.13;10.33;;;14.10;99.90;;;;;;5052683;28;20194;-78
2022/10/28 06:15:05;;;;;;;17.77;10.97;;;14.20;99.90;;;;;;5051593;28;20208;-78
2022/10/28 06:17:32;;;;;;;16.87;9.70;;;14.10;99.90;;;;;;5052685;28;20285;-79
2022/10/28 06:19:59;;;;;;;15.20;9.87;;;14.20;99.90;;;;;;5052144;28;20202;-79
2022/10/28 06:22:26;;;;;;;14.10;10.23;;;14.20;99.90;;;;;;5052117;28;20198;-79
2022/10/28 06:24:52;;;;;;;16.20;9.73;;;14.20;99.90;;;;;;5052634;28;20244;-79
2022/10/28 06:27:19;;;;;;;16.63;9.47;;;14.20;99.90;;;;;;5051839;28;20483;-80
2022/10/28 06:29:47;;;;;;;16.20;9.48;;;14.20;99.90;;;;;;5060812;28;20565;-80
2022/10/28 06:32:14;;;;;;;16.03;9.57;;;14.20;99.90;;;;;;5072198;28;20559;-79
2022/10/28 06:34:41;;;;;;;22.00;10.37;;;14.20;99.90;;;;;;5070007;28;20197;-79
2022/10/28 06:37:09;;;;;;;19.47;10.03;;;14.20;99.90;;;;;;5052243;28;20202;-79
2022/10/28 06:39:37;;;;;;;14.17;9.60;;;14.20;99.90;;;;;;5052655;28;20197;-79
2022/10/28 06:42:04;;;;;;;17.13;9.87;;;14.20;99.90;;;;;;5055219;28;20198;-79
2022/10/28 06:44:31;;;;;;;13.07;9.23;;;14.20;99.90;;;;;;5072141;28;20194;-79
2022/10/28 06:46:59;;;;;;;19.00;9.60;;;14.20;99.90;;;;;;5072287;28;20205;-79
2022/10/28 06:49:26;;;;;;;14.97;9.97;;;14.20;99.90;;;;;;5057812;28;20212;-78
2022/10/28 06:51:52;;;;;;;18.90;11.03;;;14.20;99.90;;;;;;5051017;28;20200;-79
2022/10/28 06:54:20;;;;;;;22.63;11.07;;;14.20;99.90;;;;;;5061120;28;20221;-79
2022/10/28 06:56:47;;;;;;;15.47;9.50;;;14.20;99.90;;;;;;5061898;28;20194;-79
2022/10/28 06:59:14;;;;;;;17.77;10.70;;;14.20;99.90;;;;;;5070302;28;20293;-80
2022/10/28 07:01:41;;;;;;;20.42;11.20;;;14.20;99.90;;;;;;5066683;28;20197;-79
2022/10/28 07:04:12;;;;;;;16.92;10.57;;;14.20;99.90;;;;;;5070851;28;20223;-79
2022/10/28 07:06:39;;;;;;;16.53;10.37;;;14.10;99.90;;;;;;5069834;28;20205;-79
2022/10/28 07:09:06;;;;;;;23.33;12.17;;;14.20;99.90;;;;;;5069869;28;20289;-78
2022/10/28 07:11:33;;;;;;;18.10;10.77;;;14.20;99.90;;;;;;5066987;28;20201;-80
2022/10/28 07:14:00;;;;;;;14.73;10.20;;;14.20;99.90;;;;;;5071734;28;20194;-79
2022/10/28 07:16:27;;;;;;;17.03;10.60;;;14.20;99.90;;;;;;5071743;28;20184;-80
2022/10/28 07:18:54;;;;;;;16.07;9.50;;;14.20;99.90;;;;;;5070181;28;20280;-79
2022/10/28 07:21:27;;;;;;;19.17;10.47;;;14.30;99.90;;;;;;5071554;28;20193;-80
2022/10/28 07:23:54;;;;;;;15.25;9.73;;;14.30;99.90;;;;;;5070912;28;20270;-79
2022/10/28 07:26:21;;;;;;;15.23;10.53;;;14.30;99.90;;;;;;5071434;28;20225;-80
2022/10/28 07:28:47;;;;;;;14.37;9.83;;;14.40;99.90;;;;;;5052014;28;20198;-79
2022/10/28 07:31:15;;;;;;;16.47;10.53;;;14.40;99.90;;;;;;5051224;28;20220;-79
2022/10/28 07:33:41;;;;;;;18.90;11.53;;;14.50;99.90;;;;;;5051233;28;20234;-80
2022/10/28 07:36:09;;;;;;;16.27;10.00;;;14.50;99.90;;;;;;5051082;28;20884;-79
2022/10/28 07:38:37;;;;;;;20.93;10.27;;;14.50;99.90;;;;;;5051212;28;20299;-79
2022/10/28 07:41:06;;;;;;;13.73;9.60;;;14.50;99.90;;;;;;5051696;28;20601;-80
2022/10/28 07:43:36;;;;;;;16.33;9.77;;;14.60;99.90;;;;;;5051524;28;20276;-80
2022/10/28 07:46:02;;;;;;;20.27;10.67;;;14.70;99.90;;;;;;5064192;28;20220;-80
2022/10/28 07:48:29;;;;;;;18.87;10.60;;;14.70;99.90;;;;;;5071187;28;20488;-80
2022/10/28 07:50:59;;;;;;;23.13;11.43;;;14.70;99.90;;;;;;5069783;28;20482;-80
2022/10/28 07:53:26;;;;;;;16.02;9.80;;;14.70;99.90;;;;;;5050894;28;20290;-80
2022/10/28 07:56:01;;;;;;;17.17;10.03;;;14.80;99.90;;;;;;5051573;28;20194;-79
2022/10/28 07:58:28;;;;;;;21.03;11.40;;;14.80;99.90;;;;;;5050897;28;20517;-80
2022/10/28 08:00:55;;;;;;;15.43;10.30;;;14.80;99.90;;;;;;5061154;28;20201;-78
2022/10/28 08:03:23;;;;;;;17.80;9.90;;;14.90;99.90;;;;;;5053423;28;20209;-80
2022/10/28 08:05:50;;;;;;;21.07;10.37;;;14.90;99.90;;;;;;5055114;28;20312;-80
2022/10/28 08:08:17;;;;;;;14.23;10.10;;;14.90;99.90;;;;;;5055066;28;20602;-81
2022/10/28 08:10:44;;;;;;;19.17;10.97;;;14.90;99.90;;;;;;5055128;28;20205;-80
2022/10/28 08:13:12;;;;;;;16.90;11.13;;;14.90;99.90;;;;;;5054382;28;20206;-79
2022/10/28 08:15:39;;;;;;;23.50;11.03;;;14.90;99.90;;;;;;5054704;28;20212;-79
2022/10/28 08:18:06;;;;;;;17.77;9.43;;;15.00;99.90;;;;;;5064667;28;20205;-80
2022/10/28 08:20:33;;;;;;;20.13;10.30;;;15.00;99.90;;;;;;5073622;28;20201;-79
2022/10/28 08:22:59;;;;;;;19.37;10.40;;;15.00;99.90;;;;;;5074744;28;20288;-79
2022/10/28 08:25:26;;;;;;;18.23;10.00;;;15.00;99.90;;;;;;5056750;28;20244;-79
2022/10/28 08:27:53;;;;;;;14.47;9.67;;;15.10;99.90;;;;;;5057512;28;20201;-79
2022/10/28 08:30:21;;;;;;;21.97;10.40;;;15.10;99.90;;;;;;5074127;28;20304;-80
2022/10/28 08:32:48;;;;;;;17.17;10.67;;;15.20;99.90;;;;;;5065887;28;20206;-79
2022/10/28 08:35:15;;;;;;;14.30;9.97;;;15.20;99.90;;;;;;5053232;28;20182;-79
2022/10/28 08:37:44;;;;;;;22.50;11.05;;;15.30;99.90;;;;;;5053905;28;20292;-79
2022/10/28 08:40:13;;;;;;;16.70;9.90;;;15.30;99.90;;;;;;5053497;28;20216;-79
2022/10/28 08:42:47;;;;;;;14.60;8.87;;;15.40;99.90;;;;;;5071550;28;20197;-79
2022/10/28 08:45:37;;;;;;;18.08;8.88;;;15.50;99.90;;;;;;5073900;28;20201;-79
2022/10/28 08:48:14;;;;;;;12.50;9.03;;;15.60;99.90;;;;;;5065580;28;20287;-79
2022/10/28 08:50:48;;;;;;;14.95;9.55;;;15.70;99.90;;;;;;5073097;28;20204;-79
2022/10/28 08:53:18;;;;;;;18.40;9.20;;;15.70;99.90;;;;;;5074267;28;20197;-78
2022/10/28 08:55:48;;;;;;;15.95;9.75;;;15.80;99.90;;;;;;5070369;28;20198;-79
2022/10/28 08:58:20;;;;;;;22.73;9.53;;;15.90;99.90;;;;;;5054175;28;20198;-79
2022/10/28 09:00:52;;;;;;;16.15;9.13;;;15.90;99.90;;;;;;5054016;28;20212;-78
2022/10/28 09:03:23;;;;;;;16.95;9.10;;;15.90;99.90;;;;;;5053051;28;20213;-78
2022/10/28 09:05:56;;;;;;;17.50;9.55;;;16.00;99.90;;;;;;5054105;28;20225;-78
2022/10/28 09:08:24;;;;;;;19.60;9.30;;;16.10;99.90;;;;;;5053981;28;20194;-79
2022/10/28 09:11:03;;;;;;;16.10;9.02;;;16.10;99.90;;;;;;5053439;28;20209;-78
2022/10/28 09:13:40;;;;;;;15.95;8.98;;;16.20;99.90;;;;;;5053626;28;20280;-78
2022/10/28 09:16:14;;;;;;;22.05;8.75;;;16.20;99.90;;;;;;5053402;28;20198;-79
2022/10/28 09:18:51;;;;;;;15.90;8.60;;;16.20;99.90;;;;;;5071944;28;20271;-78
2022/10/28 09:21:22;;;;;;;18.10;8.68;;;16.20;99.90;;;;;;5073580;28;20784;-78
2022/10/28 09:23:56;;;;;;;17.23;8.43;;;16.20;99.90;;;;;;5073112;28;20284;-78
2022/10/28 09:26:31;;;;;;;21.30;9.30;;;16.30;99.90;;;;;;5052815;28;20287;-78
2022/10/28 09:29:11;;;;;;;16.60;8.20;;;16.40;99.90;;;;;;5053430;28;20212;-79
2022/10/28 09:31:42;;;;;;;18.02;7.57;;;16.50;99.90;;;;;;5052767;28;20208;-79
2022/10/28 09:34:19;;;;;;;16.17;7.43;;;16.60;99.90;;;;;;5052987;28;20275;-78
2022/10/28 09:36:51;;;;;;;14.30;7.75;;;16.70;99.90;;;;;;5052738;28;20197;-79
2022/10/28 09:39:21;;;;;;;12.52;7.40;;;16.70;99.90;;;;;;5052983;28;20259;-81
2022/10/28 09:41:49;;;;;;;13.48;7.63;;;16.80;99.90;;;;;;5053628;28;20194;-78
2022/10/28 09:44:21;;;;;;;19.67;7.68;;;16.90;99.90;;;;;;5053806;28;20619;-79
2022/10/28 09:46:54;;;;;;;13.55;6.45;;;17.00;99.90;;;;;;5065635;28;20494;-78
2022/10/28 09:49:25;;;;;;;15.88;6.60;;;17.10;99.90;;;;;;5058984;28;20602;-78
2022/10/28 09:51:57;;;;;;;11.30;6.60;;;17.20;99.90;;;;;;5061903;28;20189;-79
2022/10/28 09:54:31;;;;;;;14.68;6.63;;;17.30;99.90;;;;;;5067678;28;20659;-78
2022/10/28 09:56:58;;;;;;;14.40;6.95;;;17.40;99.90;;;;;;5056696;28;20189;-78
2022/10/28 09:59:25;;;;;;;16.80;7.43;;;17.60;99.90;;;;;;5068167;28;20866;-78
2022/10/28 10:01:53;;;;;;;14.85;7.00;;;17.60;99.90;;;;;;5071566;28;20283;-78
2022/10/28 10:04:22;;;;;;;12.18;6.47;;;17.70;99.90;;;;;;5070527;28;20201;-78
2022/10/28 10:06:54;;;;;;;15.07;6.28;;;17.80;99.90;;;;;;5058035;28;20559;-79
2022/10/28 10:09:24;;;;;;;15.60;7.55;;;17.90;99.90;;;;;;5056299;28;20197;-79
2022/10/28 10:11:55;;;;;;;17.75;6.97;;;18.00;99.90;;;;;;5071757;28;20204;-77
2022/10/28 10:14:28;;;;;;;16.02;6.82;;;18.10;99.90;;;;;;5051466;28;20198;-77
2022/10/28 10:16:59;;;;;;;14.80;7.30;;;18.10;99.90;;;;;;5052185;28;20613;-77
2022/10/28 10:19:26;;;;;;;11.45;6.05;;;18.20;99.90;;;;;;5051870;28;20194;-78
2022/10/28 10:21:55;;;;;;;14.73;6.75;;;18.40;99.90;;;;;;5051203;28;20213;-78
2022/10/28 10:24:31;;;;;;;12.60;6.65;;;18.50;99.90;;;;;;5051570;28;20244;-77
2022/10/28 10:27:00;;;;;;;18.17;7.15;;;18.60;99.90;;;;;;5051432;28;20782;-78
2022/10/28 10:29:28;;;;;;;10.07;6.57;;;18.60;99.90;;;;;;5052323;28;20202;-78
2022/10/28 10:32:15;;;;;;;11.32;6.28;;;18.60;99.90;;;;;;5052266;28;20252;-76
2022/10/28 10:34:45;;;;;;;14.60;6.68;;;18.70;99.90;;;;;;5061345;28;20772;-77
2022/10/28 10:37:19;;;;;;;13.32;6.13;;;18.80;99.90;;;;;;5072041;28;20201;-79
2022/10/28 10:39:58;;;;;;;14.15;6.47;;;18.80;99.90;;;;;;5068573;28;20193;-78
2022/10/28 10:42:26;;;;;;;15.73;6.80;;;18.90;99.90;;;;;;5052042;28;20293;-78
2022/10/28 10:45:01;;;;;;;14.93;6.63;;;18.90;99.90;;;;;;5051956;28;20209;-77
2022/10/28 10:47:29;;;;;;;13.77;6.55;;;18.90;99.90;;;;;;5051896;28;20213;-78
2022/10/28 10:50:21;;;;;;;11.63;6.50;;;18.90;99.90;;;;;;5051375;28;20281;-78
2022/10/28 10:52:50;;;;;;;11.98;5.63;;;19.00;99.90;;;;;;5052104;28;20201;-77
2022/10/28 10:55:32;;;;;;;9.05;5.80;;;19.00;99.90;;;;;;5050876;28;20225;-77
2022/10/28 10:58:00;;;;;;;13.23;6.63;;;19.10;99.90;;;;;;5051597;28;20649;-77
2022/10/28 11:00:33;;;;;;;9.95;5.45;;;19.10;99.90;;;;;;5050790;28;20631;-78
2022/10/28 11:03:02;;;;;;;12.32;6.07;;;19.10;99.90;;;;;;5050655;28;20190;-77
2022/10/28 11:05:29;;;;;;;15.57;6.30;;;19.20;99.90;;;;;;5071885;28;20223;-77
2022/10/28 11:07:57;;;;;;;10.48;5.20;;;19.20;99.90;;;;;;5061250;28;20303;-80
2022/10/28 11:10:27;;;;;;;11.80;5.40;;;19.30;99.90;;;;;;5054681;28;20629;-79
2022/10/28 11:12:55;;;;;;;12.90;6.43;;;19.30;99.90;;;;;;5060837;28;20198;-79
2022/10/28 11:15:25;;;;;;;11.70;6.35;;;19.30;99.90;;;;;;5057391;28;20205;-79
2022/10/28 11:17:57;;;;;;;13.25;6.20;;;19.40;99.90;;;;;;5053607;28;20190;-79
2022/10/28 11:20:29;;;;;;;12.40;5.78;;;19.40;99.90;;;;;;5063115;28;20204;-79
2022/10/28 11:23:16;;;;;;;15.02;5.35;;;19.40;99.90;;;;;;5050882;28;20232;-81
2022/10/28 11:25:45;;;;;;;13.70;5.95;;;19.50;99.90;;;;;;5051089;28;20245;-79
2022/10/28 11:28:32;;;;;;;13.27;5.68;;;19.50;99.90;;;;;;5051625;28;20571;-79
2022/10/28 11:31:16;;;;;;;9.32;5.40;;;19.60;99.90;;;;;;5067007;28;20212;-79
2022/10/28 11:33:52;;;;;;;16.77;5.45;;;19.70;99.90;;;;;;5071784;28;20249;-79
2022/10/28 11:36:28;;;;;;;14.20;5.18;;;19.70;99.90;;;;;;5072509;28;20492;-79
2022/10/28 11:39:12;;;;;;;14.15;5.40;;;19.70;99.90;;;;;;5062920;28;20193;-80
2022/10/28 11:41:51;;;;;;;14.60;5.65;;;19.80;99.90;;;;;;5054588;28;20284;-79
2022/10/28 11:44:27;;;;;;;11.57;5.07;;;19.80;99.90;;;;;;5054121;28;20675;-79
2022/10/28 11:47:05;;;;;;;12.32;5.32;;;19.90;99.90;;;;;;5055232;28;20217;-79
2022/10/28 11:50:00;;;;;;;11.10;4.47;;;20.00;99.90;;;;;;5062909;22;20205;-79
2022/10/28 11:52:40;;;;;;;13.88;4.47;;;20.00;99.90;;;;;;5069330;28;20212;-79
2022/10/28 11:55:17;;;;;;;13.35;4.75;;;20.10;99.90;;;;;;5055540;28;20221;-79
2022/10/28 11:57:57;;;;;;;12.15;4.68;;;20.10;99.90;;;;;;5055590;28;20257;-80
2022/10/28 12:00:34;;;;;;;16.92;5.22;;;20.20;99.90;;;;;;5054969;28;20205;-79
2022/10/28 12:03:17;;;;;;;13.32;5.05;;;20.30;99.90;;;;;;5055310;28;20203;-80
2022/10/28 12:05:49;;;;;;;11.75;4.32;;;20.30;99.90;;;;;;5054588;28;20194;-78
2022/10/28 12:08:30;;;;;;;15.57;6.00;;;20.30;99.90;;;;;;5054850;28;20213;-80
2022/10/28 12:11:18;;;;;;;13.18;5.47;;;20.30;99.90;;;;;;5054903;28;20198;-78
2022/10/28 12:13:54;;;;;;;9.85;5.00;;;20.30;99.90;;;;;;5073899;28;20208;-78
2022/10/28 12:16:30;;;;;;;11.75;5.05;;;20.30;99.90;;;;;;5074620;28;20185;-79
2022/10/28 12:19:00;;;;;;;10.27;4.60;;;20.30;99.90;;;;;;5058748;28;20213;-78
2022/10/28 12:21:32;;;;;;;13.63;5.25;;;20.20;99.90;;;;;;5053923;28;20190;-80
2022/10/28 12:24:01;;;;;;;13.40;5.22;;;20.20;99.90;;;;;;5054415;28;20200;-79
2022/10/28 12:26:37;;;;;;;15.75;5.60;;;20.20;99.90;;;;;;5053809;28;20233;-81
2022/10/28 12:29:12;;;;;;;13.18;4.75;;;20.10;99.90;;;;;;5054420;28;20655;-79
2022/10/28 12:31:45;;;;;;;14.07;4.95;;;20.10;99.90;;;;;;5054847;28;20198;-78
2022/10/28 12:34:15;;;;;;;14.60;4.65;;;20.10;99.90;;;;;;5054019;28;20496;-78
2022/10/28 12:36:47;;;;;;;19.17;5.53;;;20.10;99.90;;;;;;5054967;28;20418;-79
2022/10/28 12:39:22;;;;;;;12.45;5.05;;;20.10;99.90;;;;;;5054877;28;20189;-79
2022/10/28 12:41:57;;;;;;;21.65;6.05;;;20.00;99.90;;;;;;5053662;28;20752;-78
2022/10/28 12:44:27;;;;;;;16.77;6.28;;;20.00;99.90;;;;;;5054110;28;20206;-78
2022/10/28 12:47:03;;;;;;;14.07;5.18;;;19.90;99.90;;;;;;5054239;28;20222;-78
2022/10/28 12:49:41;;;;;;;17.52;5.88;;;19.90;99.90;;;;;;5058748;28;20589;-78